Home PIREPS Pireps

Flight BEL7013

  • Submitted By: Johan Willems
  • Departure Airport: Bruxelles National (EBBR)
  • Arrival Airport: Rhein-Main-Flughafen Frankfurt am Main (EDDF)
  • Aircraft: A320-214 (OO-SNA)
  • Flight Time: 06.53
  • Date Submitted: 12/04/2015
  • Status: Accepted
Flight Details
Gross Revenue:
(133 load / € 41.00 per unit
€ 5,453.00
Fuel Cost:
(2545 fuel used @ 5.1 / unit)
€ 12,979.50

Additional Log Information:

View Log

Aircraft Used in flight is Airbus A320 brussels
15:04 Brakes are Released
15:06 Brakes are On
15:09 Brakes are Released
15:13 You Took off @ 152 Knots and Flaps at Position 3
Departure Weather
EBBR 121250Z 23012KT CAVOK 15/03 Q1028 NOSIGrn
15:15 Landing Gear Up @ 246 Knots and 4090 Feet
15:17 Above FL100 you need to switch of the landing lights
15:49 Landing Gear Down @ 146 Knots and 2290 Feet
15:52 You Landed @ 137 Knots and with -250 Vertical Speed
Arrival Weather
EDDF 121320Z 23010KT 180V270 9999 FEW048 BKN280 17/05 Q1028 NOSIGrn
16:03 Brakes are On
16:04 Brussels Bel-Track1.0.0.9

Route Map

Corporate About Us Our Team Vacancies Information Fleet Route Network Rules and Regulations Operations Flight Schedules Event Center Tours Partners IVAO Vatsim Acars dev FSCB

fb Users Online No pilots online!
0 Pilot(s) and 114 Guest(s) Online
CMS by phpVMS - Design by Crazycreatives.com - Copyright © 2018 - Brussels Airlines Virtual